Time;durP1;ratioP1;P1;durP2;ratioP2;P2;SDS_P1;SDS_P2;PMS_P1;PMS_P2;Temp;Humidity;BMP_temperature;BMP_pressure;BME280_temperature;BME280_humidity;BME280_pressure;Samples;Min_cycle;Max_cycle;Signal;HPM_P1;HPM_P2
2021/07/04 00:00:44;;;;;;;6.70;6.10;;;17.70;99.90;;;;;;5070868;28;20620;-85
2021/07/04 00:03:13;;;;;;;6.20;5.60;;;17.70;99.90;;;;;;5071414;28;21233;-85
2021/07/04 00:05:43;;;;;;;5.87;5.37;;;17.60;99.90;;;;;;5071084;28;21031;-85
2021/07/04 00:08:12;;;;;;;6.63;5.60;;;17.50;99.90;;;;;;5070652;28;20631;-85
2021/07/04 00:10:42;;;;;;;6.43;5.77;;;17.50;99.90;;;;;;5071020;28;21279;-86
2021/07/04 00:13:09;;;;;;;7.13;6.47;;;17.50;99.90;;;;;;5064981;28;20642;-86
2021/07/04 00:15:40;;;;;;;6.80;6.20;;;17.60;99.90;;;;;;5059179;28;20620;-86
2021/07/04 00:18:07;;;;;;;7.93;5.17;;;17.60;99.90;;;;;;5064581;28;21594;-85
2021/07/04 00:20:35;;;;;;;6.70;6.10;;;17.70;99.90;;;;;;5070763;28;20615;-85
2021/07/04 00:23:06;;;;;;;6.13;5.63;;;17.60;99.90;;;;;;5070832;28;20677;-85
2021/07/04 00:25:33;;;;;;;6.40;5.80;;;17.50;99.90;;;;;;5070296;28;20621;-86
2021/07/04 00:28:00;;;;;;;7.57;6.10;;;17.50;99.90;;;;;;5065425;28;20647;-86
2021/07/04 00:30:27;;;;;;;6.70;6.00;;;17.40;99.90;;;;;;5070422;28;20645;-86
2021/07/04 00:32:54;;;;;;;6.83;6.23;;;17.40;99.90;;;;;;5070935;28;20597;-86
2021/07/04 00:35:23;;;;;;;6.27;5.67;;;17.50;99.90;;;;;;5069983;28;20608;-85
2021/07/04 00:37:52;;;;;;;7.23;6.63;;;17.30;99.90;;;;;;5070920;28;21129;-85
2021/07/04 00:40:21;;;;;;;6.60;6.10;;;17.20;99.90;;;;;;5058506;28;20647;-85
2021/07/04 00:42:50;;;;;;;6.67;6.07;;;17.30;99.90;;;;;;5064991;28;20712;-85
2021/07/04 00:45:19;;;;;;;7.93;7.23;;;17.40;99.90;;;;;;5070069;28;20621;-85
2021/07/04 00:47:47;;;;;;;6.83;6.27;;;17.50;99.90;;;;;;5071014;28;20671;-85
2021/07/04 00:50:16;;;;;;;6.30;5.80;;;17.40;99.90;;;;;;5070589;28;20620;-85
2021/07/04 00:52:44;;;;;;;9.70;6.10;;;17.50;99.90;;;;;;5070061;28;20614;-85
2021/07/04 00:55:13;;;;;;;7.53;6.80;;;17.50;99.90;;;;;;5070079;28;20645;-85
2021/07/04 00:57:42;;;;;;;6.97;6.33;;;17.50;99.90;;;;;;5069867;28;20600;-85
2021/07/04 01:00:12;;;;;;;7.77;7.07;;;17.50;99.90;;;;;;5065957;28;20601;-85
2021/07/04 01:02:42;;;;;;;6.83;6.13;;;17.50;99.90;;;;;;5069852;28;20608;-85
2021/07/04 01:05:13;;;;;;;7.10;6.57;;;17.50;99.90;;;;;;5069924;28;21198;-85
2021/07/04 01:07:44;;;;;;;7.40;6.07;;;17.40;99.90;;;;;;5069748;28;20609;-85
2021/07/04 01:10:14;;;;;;;7.77;7.17;;;17.30;99.90;;;;;;5070511;28;20676;-85
2021/07/04 01:12:46;;;;;;;7.13;6.43;;;17.30;99.90;;;;;;5070674;28;20619;-85
2021/07/04 01:15:17;;;;;;;7.27;6.60;;;17.30;99.90;;;;;;5055770;28;20654;-85
2021/07/04 01:17:45;;;;;;;8.37;7.57;;;17.30;99.90;;;;;;5057301;28;20624;-85
2021/07/04 01:20:18;;;;;;;7.00;6.40;;;17.20;99.90;;;;;;5059334;28;21528;-85
2021/07/04 01:23:01;;;;;;;10.03;6.03;;;17.20;99.90;;;;;;5061630;28;20633;-85
2021/07/04 01:25:33;;;;;;;7.13;6.43;;;17.20;99.90;;;;;;5059412;28;21190;-85
2021/07/04 01:28:03;;;;;;;7.63;6.83;;;17.20;99.90;;;;;;5065506;28;20635;-85
2021/07/04 01:30:33;;;;;;;9.10;7.00;;;17.20;99.90;;;;;;5069292;28;20694;-85
2021/07/04 01:33:01;;;;;;;8.10;6.93;;;17.20;99.90;;;;;;5056974;28;20620;-85
2021/07/04 01:35:31;;;;;;;7.77;7.07;;;17.10;99.90;;;;;;5062397;28;20621;-84
2021/07/04 01:38:01;;;;;;;7.40;6.30;;;17.00;99.90;;;;;;5057408;28;21127;-84
2021/07/04 01:40:30;;;;;;;7.90;6.80;;;16.90;99.90;;;;;;5066964;28;21169;-85
2021/07/04 01:42:59;;;;;;;7.37;6.37;;;16.90;99.90;;;;;;5073340;28;20698;-85
2021/07/04 01:45:27;;;;;;;6.70;6.10;;;16.90;99.90;;;;;;5073701;28;20609;-85
2021/07/04 01:47:59;;;;;;;6.07;5.60;;;16.90;99.90;;;;;;5068267;28;21368;-85
2021/07/04 01:50:46;;;;;;;6.87;6.27;;;17.00;99.90;;;;;;5073847;28;20671;-84
2021/07/04 01:53:22;;;;;;;6.83;6.23;;;16.90;99.90;;;;;;5073066;28;20651;-85
2021/07/04 01:55:51;;;;;;;8.47;7.60;;;16.80;99.90;;;;;;5073617;28;20646;-84
2021/07/04 01:58:19;;;;;;;8.53;7.00;;;16.80;99.90;;;;;;5073366;28;20613;-85
2021/07/04 02:00:47;;;;;;;7.23;6.60;;;16.80;99.90;;;;;;5073549;28;20625;-84
2021/07/04 02:03:15;;;;;;;6.87;6.30;;;16.80;99.90;;;;;;5068034;28;20637;-85
2021/07/04 02:05:43;;;;;;;6.83;6.23;;;16.80;99.90;;;;;;5072833;28;20613;-84
2021/07/04 02:08:11;;;;;;;7.17;6.57;;;16.80;99.90;;;;;;5073038;28;20606;-84
2021/07/04 02:10:42;;;;;;;8.20;7.50;;;16.90;99.90;;;;;;5073231;28;20609;-84
2021/07/04 02:13:11;;;;;;;7.47;6.80;;;16.80;99.90;;;;;;5073417;28;21187;-84
2021/07/04 02:15:41;;;;;;;7.20;6.60;;;16.80;99.90;;;;;;5072628;28;20724;-84
2021/07/04 02:18:11;;;;;;;7.90;7.20;;;16.80;99.90;;;;;;5073064;28;20603;-85
2021/07/04 02:20:41;;;;;;;7.27;6.57;;;16.80;99.90;;;;;;5073449;28;20613;-84
2021/07/04 02:23:10;;;;;;;8.03;7.13;;;16.80;99.90;;;;;;5073448;28;20649;-84
2021/07/04 02:25:43;;;;;;;7.20;6.57;;;16.70;99.90;;;;;;5072780;28;20688;-84
2021/07/04 02:28:15;;;;;;;7.83;7.07;;;16.70;99.90;;;;;;5073278;28;20617;-84
2021/07/04 02:30:44;;;;;;;8.10;7.40;;;16.70;99.90;;;;;;5072138;28;20655;-84
2021/07/04 02:33:13;;;;;;;7.40;6.70;;;16.60;99.90;;;;;;5047588;28;20634;-84
2021/07/04 02:35:44;;;;;;;7.83;7.17;;;16.70;99.90;;;;;;5053017;28;20613;-84
2021/07/04 02:38:15;;;;;;;7.10;6.60;;;16.60;99.90;;;;;;5052678;28;20610;-84
2021/07/04 02:40:45;;;;;;;8.40;7.60;;;16.60;99.90;;;;;;5068080;28;21237;-84
2021/07/04 02:43:17;;;;;;;8.00;7.20;;;16.60;99.90;;;;;;5072171;28;20625;-85
2021/07/04 02:45:45;;;;;;;7.80;7.10;;;16.60;99.90;;;;;;5073304;28;20962;-84
2021/07/04 02:48:13;;;;;;;7.43;6.73;;;16.50;99.90;;;;;;5072460;28;21200;-84
2021/07/04 02:50:41;;;;;;;7.97;7.23;;;16.40;99.90;;;;;;5073069;28;20610;-84
2021/07/04 02:53:09;;;;;;;8.97;7.67;;;16.40;99.90;;;;;;5067387;28;20684;-84
2021/07/04 02:55:37;;;;;;;8.07;7.27;;;16.40;99.90;;;;;;5072170;28;20597;-84
2021/07/04 02:58:06;;;;;;;8.60;6.23;;;16.50;99.90;;;;;;5072589;28;20617;-84
2021/07/04 03:00:33;;;;;;;8.27;7.57;;;16.50;99.90;;;;;;5072420;28;21178;-84
2021/07/04 03:03:01;;;;;;;7.80;6.77;;;16.50;99.90;;;;;;5072964;28;20609;-85
2021/07/04 03:05:30;;;;;;;8.37;6.50;;;16.50;99.90;;;;;;5072253;28;20981;-84
2021/07/04 03:07:57;;;;;;;8.20;7.47;;;16.70;99.90;;;;;;5067038;28;20987;-84
2021/07/04 03:10:25;;;;;;;7.57;6.87;;;16.70;99.90;;;;;;5072059;28;20716;-84
2021/07/04 03:12:52;;;;;;;11.90;7.77;;;16.80;99.90;;;;;;5072365;28;20688;-84
2021/07/04 03:15:21;;;;;;;7.67;6.97;;;16.80;99.90;;;;;;5063302;28;21223;-84
2021/07/04 03:17:49;;;;;;;8.57;7.23;;;16.70;99.90;;;;;;5052158;28;20625;-84
2021/07/04 03:20:18;;;;;;;7.87;7.17;;;16.70;99.90;;;;;;5052175;28;20664;-85
2021/07/04 03:22:47;;;;;;;8.40;7.60;;;16.80;99.90;;;;;;5048279;28;20658;-85
2021/07/04 03:25:17;;;;;;;8.17;7.40;;;16.80;99.90;;;;;;5050810;28;20606;-84
2021/07/04 03:27:47;;;;;;;8.80;8.00;;;16.80;99.90;;;;;;5051919;28;20615;-85
2021/07/04 03:30:22;;;;;;;7.40;6.80;;;16.70;99.90;;;;;;5052247;28;20606;-84
2021/07/04 03:32:50;;;;;;;7.63;6.90;;;16.70;99.90;;;;;;5069625;28;20712;-84
2021/07/04 03:35:19;;;;;;;7.63;6.93;;;16.70;99.90;;;;;;5071581;28;20605;-84
2021/07/04 03:37:48;;;;;;;7.90;7.10;;;16.70;99.90;;;;;;5071946;28;21154;-84
2021/07/04 03:40:20;;;;;;;8.80;8.00;;;16.70;99.90;;;;;;5066800;28;20632;-84
2021/07/04 03:42:50;;;;;;;8.10;7.23;;;16.80;99.90;;;;;;5071989;28;20621;-84
2021/07/04 03:45:20;;;;;;;7.50;6.80;;;16.90;99.90;;;;;;5071431;28;20637;-84
2021/07/04 03:47:53;;;;;;;7.60;7.00;;;17.00;99.90;;;;;;5070815;28;20645;-85
2021/07/04 03:50:24;;;;;;;8.20;7.40;;;17.00;99.90;;;;;;5071381;28;20609;-84
2021/07/04 03:52:56;;;;;;;7.93;7.33;;;17.10;99.90;;;;;;5071737;28;20649;-84
2021/07/04 03:55:25;;;;;;;8.17;7.37;;;17.10;99.90;;;;;;5066053;28;20636;-84
2021/07/04 03:57:54;;;;;;;7.40;6.80;;;17.20;99.90;;;;;;5071493;28;20614;-84
2021/07/04 04:00:24;;;;;;;7.57;6.87;;;17.20;99.90;;;;;;5070939;28;21007;-84
2021/07/04 04:02:54;;;;;;;8.20;7.50;;;17.20;99.90;;;;;;5071595;28;20602;-84
2021/07/04 04:05:22;;;;;;;8.10;7.30;;;17.20;99.90;;;;;;5071226;28;20613;-84
2021/07/04 04:07:52;;;;;;;7.73;7.03;;;17.30;99.90;;;;;;5071457;28;20663;-84
2021/07/04 04:10:21;;;;;;;7.50;6.60;;;17.30;99.90;;;;;;5071414;28;20624;-84
2021/07/04 04:12:50;;;;;;;8.63;6.47;;;17.30;99.90;;;;;;5065418;28;21143;-84
2021/07/04 04:15:19;;;;;;;7.43;6.70;;;17.40;99.90;;;;;;5062201;28;20614;-84
2021/07/04 04:17:48;;;;;;;7.07;6.47;;;17.40;99.90;;;;;;5051175;28;20619;-84
2021/07/04 04:20:16;;;;;;;7.90;7.00;;;17.40;99.90;;;;;;5051228;28;21260;-84
2021/07/04 04:22:44;;;;;;;8.27;7.43;;;17.40;99.90;;;;;;5051310;28;20616;-84
2021/07/04 04:25:13;;;;;;;8.63;7.43;;;17.50;99.90;;;;;;5051073;28;20612;-84
2021/07/04 04:27:42;;;;;;;8.27;7.50;;;17.50;99.90;;;;;;5051026;28;21317;-84
2021/07/04 04:30:12;;;;;;;7.57;6.87;;;17.50;99.90;;;;;;5045330;28;20646;-85
2021/07/04 04:32:40;;;;;;;8.60;6.70;;;17.50;99.90;;;;;;5067626;28;20648;-84
2021/07/04 04:35:10;;;;;;;6.63;6.13;;;17.60;99.90;;;;;;5070578;28;20719;-85
2021/07/04 04:37:39;;;;;;;8.07;7.27;;;17.50;99.90;;;;;;5070788;28;20616;-85
2021/07/04 04:40:08;;;;;;;7.50;6.80;;;17.50;99.90;;;;;;5070506;28;20657;-85
2021/07/04 04:42:36;;;;;;;7.40;6.80;;;17.40;99.90;;;;;;5066014;28;20636;-85
2021/07/04 04:45:05;;;;;;;7.10;6.50;;;17.40;99.90;;;;;;5056385;28;20644;-85
2021/07/04 04:47:33;;;;;;;7.33;6.67;;;17.50;99.90;;;;;;5049414;28;20613;-85
2021/07/04 04:50:01;;;;;;;7.13;6.53;;;17.50;99.90;;;;;;5050670;28;21196;-85
2021/07/04 04:52:32;;;;;;;7.07;6.37;;;17.50;99.90;;;;;;5050070;28;20632;-85
2021/07/04 04:54:59;;;;;;;6.93;6.27;;;17.50;99.90;;;;;;5050767;28;20617;-85
2021/07/04 04:57:26;;;;;;;8.13;7.43;;;17.50;99.90;;;;;;5050890;28;20606;-85
2021/07/04 04:59:54;;;;;;;6.90;6.30;;;17.50;99.90;;;;;;5044857;28;20726;-85
2021/07/04 05:02:22;;;;;;;6.57;6.00;;;17.50;99.90;;;;;;5051002;28;20634;-85
2021/07/04 05:04:51;;;;;;;8.23;7.43;;;17.50;99.90;;;;;;5050003;28;20676;-85
2021/07/04 05:07:19;;;;;;;6.83;6.23;;;17.50;99.90;;;;;;5049911;28;20669;-85
2021/07/04 05:09:49;;;;;;;8.37;7.67;;;17.50;99.90;;;;;;5050598;28;20643;-85
2021/07/04 05:12:17;;;;;;;7.50;6.80;;;17.50;99.90;;;;;;5050370;28;20630;-85
2021/07/04 05:14:45;;;;;;;7.57;6.87;;;17.60;99.90;;;;;;5054544;28;21211;-85
2021/07/04 05:17:13;;;;;;;6.20;5.60;;;17.60;99.90;;;;;;5070463;28;21203;-85
2021/07/04 05:19:41;;;;;;;7.20;6.50;;;17.60;99.90;;;;;;5070229;28;21034;-85
2021/07/04 05:22:08;;;;;;;8.10;7.40;;;17.60;99.90;;;;;;5070291;28;20617;-85
2021/07/04 05:24:36;;;;;;;9.40;7.20;;;17.50;99.90;;;;;;5070032;28;20602;-85
2021/07/04 05:27:06;;;;;;;7.90;7.20;;;17.60;99.90;;;;;;5065653;28;20616;-85
2021/07/04 05:29:34;;;;;;;8.67;7.97;;;17.60;99.90;;;;;;5069846;28;20984;-85
2021/07/04 05:32:02;;;;;;;8.33;7.10;;;17.80;99.90;;;;;;5058456;28;20759;-86
2021/07/04 05:34:29;;;;;;;7.07;6.47;;;17.80;99.90;;;;;;5050220;28;20612;-85
2021/07/04 05:36:57;;;;;;;7.27;6.57;;;17.80;99.90;;;;;;5050055;28;20620;-85
2021/07/04 05:39:26;;;;;;;7.47;6.77;;;17.90;99.90;;;;;;5054417;28;21551;-85
2021/07/04 05:41:54;;;;;;;8.37;7.57;;;17.90;99.90;;;;;;5064784;28;20646;-85
2021/07/04 05:44:23;;;;;;;7.50;6.80;;;17.90;99.90;;;;;;5070162;28;21004;-85
2021/07/04 05:46:54;;;;;;;7.07;6.57;;;18.10;99.90;;;;;;5069748;28;20631;-85
2021/07/04 05:49:22;;;;;;;6.73;6.13;;;18.10;99.90;;;;;;5070286;28;20656;-85
2021/07/04 05:51:51;;;;;;;7.07;6.47;;;18.10;99.90;;;;;;5069592;28;20646;-85
2021/07/04 05:54:19;;;;;;;7.50;6.73;;;18.10;99.90;;;;;;5069911;28;21297;-85
2021/07/04 05:56:46;;;;;;;8.80;6.93;;;18.30;99.90;;;;;;5064660;28;20734;-85
2021/07/04 05:59:15;;;;;;;6.93;6.43;;;18.40;99.90;;;;;;5069316;28;20646;-85
2021/07/04 06:01:43;;;;;;;7.47;6.70;;;18.50;99.90;;;;;;5070261;28;20609;-85
2021/07/04 06:04:11;;;;;;;7.80;7.03;;;18.40;99.90;;;;;;5069564;28;20631;-85
2021/07/04 06:06:39;;;;;;;7.73;7.13;;;18.40;99.90;;;;;;5069467;28;20756;-85
2021/07/04 06:09:06;;;;;;;7.73;6.20;;;18.40;99.90;;;;;;5069638;28;20616;-85
2021/07/04 06:11:34;;;;;;;10.20;6.77;;;18.40;99.90;;;;;;5070609;28;20623;-85
2021/07/04 06:14:01;;;;;;;8.20;7.40;;;18.50;99.90;;;;;;5073401;28;20984;-85
2021/07/04 06:16:28;;;;;;;7.80;7.10;;;18.50;99.90;;;;;;5055058;28;21090;-85
2021/07/04 06:18:56;;;;;;;7.37;6.77;;;18.60;99.90;;;;;;5053379;28;20607;-85
2021/07/04 06:21:23;;;;;;;8.03;7.10;;;18.60;99.90;;;;;;5053105;28;20667;-85
2021/07/04 06:23:50;;;;;;;7.40;6.70;;;18.60;99.90;;;;;;5053223;28;20606;-84
2021/07/04 06:26:17;;;;;;;8.23;7.43;;;18.60;99.90;;;;;;5052538;28;21156;-85
2021/07/04 06:28:44;;;;;;;6.60;6.00;;;18.70;99.90;;;;;;5053112;28;20605;-85
2021/07/04 06:31:10;;;;;;;9.10;6.70;;;18.70;99.90;;;;;;5057526;28;20655;-84
2021/07/04 06:33:38;;;;;;;8.27;7.23;;;18.90;99.90;;;;;;5073264;28;20752;-85
2021/07/04 06:36:06;;;;;;;10.50;7.57;;;19.00;99.90;;;;;;5072636;28;20693;-85
2021/07/04 06:38:33;;;;;;;7.70;7.10;;;19.10;99.90;;;;;;5073085;28;20644;-85
2021/07/04 06:41:00;;;;;;;7.97;7.20;;;19.10;99.90;;;;;;5071921;28;20613;-85
2021/07/04 06:43:27;;;;;;;8.90;6.60;;;19.10;99.90;;;;;;5068995;28;20644;-85
2021/07/04 06:45:55;;;;;;;7.77;7.07;;;19.20;99.90;;;;;;5069667;28;20652;-85
2021/07/04 06:48:22;;;;;;;7.27;6.60;;;19.30;99.90;;;;;;5070277;28;20660;-85
2021/07/04 06:50:49;;;;;;;7.13;6.47;;;19.30;99.90;;;;;;5069855;28;20683;-85
2021/07/04 06:53:18;;;;;;;7.53;6.83;;;19.40;99.90;;;;;;5069389;28;20710;-85
2021/07/04 06:55:45;;;;;;;7.73;7.13;;;19.60;99.90;;;;;;5051143;28;20622;-85
2021/07/04 06:58:11;;;;;;;7.27;6.67;;;19.60;99.90;;;;;;5050972;28;20604;-85
2021/07/04 07:00:38;;;;;;;7.63;7.03;;;19.50;99.90;;;;;;5051682;28;20624;-84
2021/07/04 07:03:05;;;;;;;6.80;6.30;;;19.40;99.90;;;;;;5051706;28;20622;-85
2021/07/04 07:05:32;;;;;;;7.33;6.70;;;19.50;99.90;;;;;;5050969;28;20625;-85
2021/07/04 07:07:59;;;;;;;10.30;7.30;;;19.50;99.90;;;;;;5051523;28;20621;-85
2021/07/04 07:10:27;;;;;;;6.97;6.37;;;19.50;99.90;;;;;;5051387;28;20613;-85
2021/07/04 07:12:54;;;;;;;7.27;6.77;;;19.60;99.90;;;;;;5052016;28;20626;-85
2021/07/04 07:15:21;;;;;;;7.47;6.77;;;19.80;99.90;;;;;;5060793;28;20613;-85
2021/07/04 07:17:48;;;;;;;6.70;6.20;;;20.10;99.90;;;;;;5072147;28;21181;-84
2021/07/04 07:20:16;;;;;;;8.17;7.40;;;20.10;99.90;;;;;;5070792;28;20606;-85
2021/07/04 07:22:43;;;;;;;7.10;6.53;;;20.00;99.90;;;;;;5070438;28;20694;-85
2021/07/04 07:25:10;;;;;;;6.97;6.37;;;20.00;99.90;;;;;;5070807;28;20656;-85
2021/07/04 07:27:39;;;;;;;7.90;7.30;;;20.10;99.90;;;;;;5070916;28;20605;-85
2021/07/04 07:30:08;;;;;;;7.60;6.90;;;19.90;99.90;;;;;;5070750;28;20613;-84
2021/07/04 07:32:36;;;;;;;7.27;6.57;;;19.90;99.90;;;;;;5054847;28;20676;-84
2021/07/04 07:35:03;;;;;;;7.47;6.67;;;19.90;99.90;;;;;;5050591;28;20709;-84
2021/07/04 07:37:30;;;;;;;7.10;6.50;;;19.90;99.90;;;;;;5050933;28;20618;-85
2021/07/04 07:39:57;;;;;;;7.53;6.93;;;20.00;99.90;;;;;;5059830;28;21209;-85
2021/07/04 07:42:24;;;;;;;6.70;6.10;;;20.10;99.90;;;;;;5070422;28;20637;-84
2021/07/04 07:44:52;;;;;;;6.30;5.70;;;20.20;99.90;;;;;;5066471;28;21167;-84
2021/07/04 07:47:19;;;;;;;11.23;6.70;;;20.40;99.90;;;;;;5059068;28;20632;-84
2021/07/04 07:49:46;;;;;;;7.23;6.60;;;20.50;99.90;;;;;;5051204;28;20618;-84
2021/07/04 07:52:13;;;;;;;6.30;5.80;;;20.70;99.90;;;;;;5051462;28;20609;-86
2021/07/04 07:54:41;;;;;;;6.63;5.93;;;20.90;99.90;;;;;;5050993;28;21246;-86
2021/07/04 07:57:08;;;;;;;6.50;6.00;;;20.90;99.90;;;;;;5051325;28;20732;-86
2021/07/04 07:59:35;;;;;;;7.53;6.93;;;21.00;99.90;;;;;;5051391;28;20618;-84
2021/07/04 08:02:04;;;;;;;7.80;7.00;;;20.90;99.90;;;;;;5050548;28;20612;-87
2021/07/04 08:04:32;;;;;;;6.80;6.20;;;20.70;99.30;;;;;;5050424;28;21389;-86
2021/07/04 08:06:59;;;;;;;7.93;7.30;;;20.60;99.90;;;;;;5050975;28;20600;-85
2021/07/04 08:09:26;;;;;;;7.80;7.20;;;20.30;99.90;;;;;;5051231;28;20645;-86
2021/07/04 08:11:53;;;;;;;7.77;7.17;;;20.30;99.90;;;;;;5050965;28;20602;-86
2021/07/04 08:14:21;;;;;;;7.20;6.60;;;20.50;99.90;;;;;;5050875;28;20643;-87
2021/07/04 08:16:48;;;;;;;7.30;6.57;;;20.90;99.90;;;;;;5060381;28;20689;-87
2021/07/04 08:19:16;;;;;;;8.47;6.77;;;21.00;99.90;;;;;;5068225;28;20622;-86
2021/07/04 08:21:44;;;;;;;7.80;7.10;;;21.10;99.40;;;;;;5069819;28;20630;-87
2021/07/04 08:24:11;;;;;;;7.40;6.70;;;21.10;99.30;;;;;;5070188;28;20631;-87
2021/07/04 08:26:39;;;;;;;7.03;6.53;;;21.00;99.20;;;;;;5070736;28;20594;-88
2021/07/04 08:29:06;;;;;;;6.53;6.03;;;21.30;99.30;;;;;;5069583;28;20625;-86
2021/07/04 08:31:33;;;;;;;6.50;5.90;;;21.50;99.10;;;;;;5070265;28;21283;-87
2021/07/04 08:34:00;;;;;;;10.27;6.87;;;21.70;98.90;;;;;;5070323;28;20655;-88
2021/07/04 08:36:30;;;;;;;6.70;6.10;;;22.00;98.00;;;;;;5070958;28;20641;-87
2021/07/04 08:38:57;;;;;;;7.40;6.80;;;22.00;97.10;;;;;;5070775;28;20636;-87
2021/07/04 08:41:25;;;;;;;5.90;5.40;;;21.90;96.70;;;;;;5070999;28;20670;-87
2021/07/04 08:43:53;;;;;;;6.23;5.80;;;21.90;97.40;;;;;;5070238;28;20632;-87
2021/07/04 08:46:20;;;;;;;7.40;6.70;;;22.00;96.70;;;;;;5070349;28;20624;-87
2021/07/04 08:48:47;;;;;;;6.63;6.03;;;21.90;98.00;;;;;;5070587;28;20659;-85
2021/07/04 08:51:14;;;;;;;6.47;5.97;;;21.70;97.40;;;;;;5070424;28;20620;-85
2021/07/04 08:53:43;;;;;;;7.77;6.47;;;21.80;97.80;;;;;;5070587;28;20632;-85
2021/07/04 08:56:10;;;;;;;6.23;5.70;;;21.60;96.90;;;;;;5069967;28;20624;-84
2021/07/04 08:58:37;;;;;;;6.53;6.00;;;21.70;97.80;;;;;;5068171;28;20629;-84
2021/07/04 09:01:15;;;;;;;7.07;6.47;;;22.10;96.60;;;;;;5064424;28;20615;-84
2021/07/04 09:03:45;;;;;;;5.00;4.70;;;22.50;96.40;;;;;;5067412;28;20619;-84
2021/07/04 09:06:12;;;;;;;5.70;5.30;;;22.80;95.20;;;;;;5069618;28;21111;-84
2021/07/04 09:08:39;;;;;;;5.50;5.10;;;23.10;95.10;;;;;;5058052;28;20677;-84
2021/07/04 09:11:16;;;;;;;4.90;4.50;;;23.20;93.10;;;;;;5065998;28;20689;-85
2021/07/04 09:13:44;;;;;;;5.87;5.47;;;23.20;92.50;;;;;;5050233;28;20658;-84
2021/07/04 09:16:14;;;;;;;5.03;4.63;;;23.20;92.90;;;;;;5052476;28;20628;-84
2021/07/04 09:18:41;;;;;;;4.80;4.40;;;23.20;91.90;;;;;;5061908;28;20616;-85
2021/07/04 09:21:19;;;;;;;4.10;3.80;;;23.00;91.70;;;;;;5060329;28;20680;-85
2021/07/04 09:23:46;;;;;;;4.63;4.33;;;23.10;92.70;;;;;;5057716;28;21197;-85
2021/07/04 09:26:42;;;;;;;5.50;5.00;;;23.00;93.00;;;;;;5064997;28;20616;-85
2021/07/04 09:29:10;;;;;;;4.90;4.40;;;22.80;93.60;;;;;;5069857;28;21050;-83
2021/07/04 09:31:39;;;;;;;4.80;4.40;;;22.80;92.10;;;;;;5065119;28;20621;-86
2021/07/04 09:34:08;;;;;;;3.73;3.47;;;22.90;93.20;;;;;;5066664;28;21100;-86
2021/07/04 09:36:36;;;;;;;3.50;3.10;;;23.10;91.10;;;;;;5058436;28;20990;-85
2021/07/04 09:39:16;;;;;;;4.73;4.10;;;23.10;90.10;;;;;;5065397;28;20624;-85
2021/07/04 09:42:10;;;;;;;4.20;3.90;;;23.20;90.90;;;;;;5057237;28;21229;-84
2021/07/04 09:44:39;;;;;;;4.13;3.70;;;23.50;90.60;;;;;;5066752;28;20630;-85
2021/07/04 09:47:15;;;;;;;5.57;4.97;;;23.30;89.40;;;;;;5072005;28;21173;-85
2021/07/04 09:49:42;;;;;;;4.73;4.33;;;23.30;91.20;;;;;;5074133;28;20679;-86
2021/07/04 09:52:16;;;;;;;5.70;5.30;;;23.40;91.80;;;;;;5074144;28;20742;-86
2021/07/04 09:54:58;;;;;;;5.13;4.73;;;23.70;90.70;;;;;;5073009;28;20679;-85
2021/07/04 09:57:27;;;;;;;5.43;4.73;;;23.70;90.90;;;;;;5073131;28;20682;-84
2021/07/04 10:00:14;;;;;;;5.80;5.30;;;23.90;91.20;;;;;;5073966;28;20679;-85
2021/07/04 10:02:42;;;;;;;5.30;4.77;;;24.00;89.70;;;;;;5073353;28;20986;-85
2021/07/04 10:05:13;;;;;;;5.23;4.83;;;24.00;90.10;;;;;;5073848;28;20612;-86
2021/07/04 10:07:40;;;;;;;4.40;4.10;;;24.10;90.20;;;;;;5073705;28;20616;-85
2021/07/04 10:10:07;;;;;;;5.17;4.70;;;24.20;90.20;;;;;;5073572;28;20614;-85
2021/07/04 10:12:36;;;;;;;5.27;4.83;;;24.20;88.50;;;;;;5073788;28;20609;-86
2021/07/04 10:15:04;;;;;;;4.73;4.33;;;24.20;88.30;;;;;;5073005;28;20668;-86
2021/07/04 10:17:32;;;;;;;5.30;4.90;;;24.10;90.60;;;;;;5072983;28;20694;-86
2021/07/04 10:20:00;;;;;;;4.93;4.50;;;24.00;91.00;;;;;;5072654;28;20682;-85
2021/07/04 10:22:31;;;;;;;6.13;5.13;;;23.80;92.00;;;;;;5072849;28;20621;-85
2021/07/04 10:24:58;;;;;;;5.80;5.30;;;23.70;91.50;;;;;;5073397;28;20605;-86
2021/07/04 10:27:27;;;;;;;5.20;4.80;;;23.30;91.60;;;;;;5073244;28;20649;-85
2021/07/04 10:29:56;;;;;;;4.87;4.53;;;23.20;92.10;;;;;;5073250;28;20617;-86
2021/07/04 10:32:23;;;;;;;5.47;4.97;;;23.30;90.30;;;;;;5073334;28;21204;-86
2021/07/04 10:34:52;;;;;;;4.77;4.47;;;23.30;90.70;;;;;;5073342;28;21043;-85
2021/07/04 10:37:31;;;;;;;5.20;4.70;;;23.40;90.30;;;;;;5073390;28;20609;-86
2021/07/04 10:40:15;;;;;;;5.17;4.80;;;23.40;90.40;;;;;;5073391;28;20632;-87
2021/07/04 10:42:43;;;;;;;5.17;4.77;;;23.60;90.00;;;;;;5071794;28;21285;-86
2021/07/04 10:45:37;;;;;;;4.03;3.73;;;23.50;91.40;;;;;;5072860;28;20596;-86
2021/07/04 10:48:20;;;;;;;5.13;4.73;;;23.40;91.00;;;;;;5067330;28;20637;-86
2021/07/04 10:51:08;;;;;;;5.07;4.67;;;23.00;90.80;;;;;;5072439;28;20624;-86
2021/07/04 10:53:45;;;;;;;5.33;4.93;;;23.10;90.50;;;;;;5073063;28;20624;-86
2021/07/04 10:56:38;;;;;;;4.60;4.20;;;23.00;92.20;;;;;;5072188;28;20954;-86
2021/07/04 10:59:07;;;;;;;4.37;4.07;;;22.60;91.90;;;;;;5064803;28;20616;-86
2021/07/04 11:01:57;;;;;;;4.20;3.90;;;22.60;91.10;;;;;;5072665;28;21003;-86
2021/07/04 11:04:55;;;;;;;5.40;5.00;;;22.70;92.10;;;;;;5052717;28;20605;-86
2021/07/04 11:07:24;;;;;;;4.70;4.30;;;22.60;91.30;;;;;;5010171;28;20768;-86
2021/07/04 11:10:19;;;;;;;5.77;5.20;;;22.60;91.80;;;;;;5044271;28;20664;-87
2021/07/04 11:12:47;;;;;;;4.63;4.33;;;22.70;92.20;;;;;;5052468;28;20681;-86
2021/07/04 11:15:30;;;;;;;4.60;4.20;;;22.80;91.80;;;;;;5064091;28;20659;-86
2021/07/04 11:18:07;;;;;;;4.77;4.47;;;22.90;93.10;;;;;;5070875;28;20640;-87
2021/07/04 11:20:50;;;;;;;4.77;4.37;;;23.10;91.60;;;;;;5072794;28;21264;-86
2021/07/04 11:23:23;;;;;;;4.57;4.27;;;23.30;91.30;;;;;;5072180;28;20662;-87
2021/07/04 11:25:53;;;;;;;4.90;4.40;;;23.50;90.40;;;;;;5072314;28;20613;-86
2021/07/04 11:28:22;;;;;;;7.17;4.43;;;23.60;90.50;;;;;;5071594;28;21162;-87
2021/07/04 11:30:50;;;;;;;4.40;4.10;;;23.60;89.70;;;;;;5071014;28;20620;-86
2021/07/04 11:33:28;;;;;;;5.27;4.57;;;23.60;91.80;;;;;;5052312;28;20684;-86
2021/07/04 11:35:58;;;;;;;5.30;4.90;;;23.40;91.70;;;;;;5052147;28;20600;-86
2021/07/04 11:38:26;;;;;;;5.40;5.00;;;23.60;91.00;;;;;;5052382;28;20659;-87
2021/07/04 11:40:54;;;;;;;4.30;4.00;;;23.70;90.70;;;;;;5051717;28;20625;-86
2021/07/04 11:43:24;;;;;;;5.20;4.80;;;23.60;90.10;;;;;;5051978;28;20644;-86
2021/07/04 11:45:53;;;;;;;4.23;3.93;;;23.50;90.50;;;;;;5052188;28;20660;-86
2021/07/04 11:48:23;;;;;;;4.60;4.30;;;23.40;89.90;;;;;;5069995;28;21189;-87
2021/07/04 11:50:56;;;;;;;10.53;4.80;;;23.30;91.20;;;;;;5072038;28;20617;-87
2021/07/04 11:53:24;;;;;;;4.83;4.43;;;23.20;91.90;;;;;;5071250;28;20628;-85
2021/07/04 11:56:04;;;;;;;4.47;4.10;;;23.20;91.20;;;;;;5071736;28;20660;-86
2021/07/04 11:58:33;;;;;;;5.27;4.87;;;22.90;90.90;;;;;;5071654;28;21096;-86
2021/07/04 12:01:00;;;;;;;5.17;4.77;;;23.00;90.80;;;;;;5071839;28;20640;-85
2021/07/04 12:03:32;;;;;;;4.57;4.27;;;22.90;90.80;;;;;;5058979;28;20675;-86
2021/07/04 12:06:10;;;;;;;4.30;4.00;;;23.00;91.60;;;;;;5057782;28;20613;-86
2021/07/04 12:09:13;;;;;;;4.63;4.23;;;23.00;92.00;;;;;;5061992;28;21325;-86
2021/07/04 12:11:50;;;;;;;5.17;4.80;;;22.90;90.60;;;;;;5050059;28;20628;-86
2021/07/04 12:14:27;;;;;;;5.27;4.87;;;22.90;90.80;;;;;;5070922;28;20655;-86
2021/07/04 12:16:55;;;;;;;4.57;4.27;;;22.90;90.60;;;;;;5071683;28;20704;-87
2021/07/04 12:19:50;;;;;;;4.60;4.23;;;22.90;90.30;;;;;;5070986;28;20736;-86
2021/07/04 12:22:38;;;;;;;4.90;4.60;;;22.90;91.50;;;;;;5051235;28;20643;-85
2021/07/04 12:25:15;;;;;;;5.40;4.60;;;23.00;91.30;;;;;;5051205;28;20641;-86
2021/07/04 12:27:46;;;;;;;5.97;5.37;;;23.30;91.90;;;;;;5050983;28;20636;-87
2021/07/04 12:30:27;;;;;;;5.03;4.70;;;23.80;90.90;;;;;;5051028;28;20716;-86
2021/07/04 12:33:06;;;;;;;5.93;5.43;;;24.40;90.20;;;;;;5069148;28;21158;-86
2021/07/04 12:35:42;;;;;;;4.90;4.50;;;24.80;88.50;;;;;;5070869;28;20660;-85
2021/07/04 12:38:23;;;;;;;4.80;4.40;;;24.80;83.80;;;;;;5071263;28;20970;-86
2021/07/04 12:41:03;;;;;;;4.73;4.37;;;24.50;83.60;;;;;;5070655;28;21278;-87
2021/07/04 12:43:33;;;;;;;4.97;4.60;;;24.80;88.40;;;;;;5070479;28;20670;-84
2021/07/04 12:46:02;;;;;;;4.67;4.30;;;25.20;85.80;;;;;;5069893;28;20642;-85
2021/07/04 12:48:31;;;;;;;3.93;3.63;;;25.70;87.10;;;;;;5070535;28;20629;-86
2021/07/04 12:51:00;;;;;;;4.23;3.93;;;25.50;79.30;;;;;;5070631;28;21453;-85
2021/07/04 12:53:37;;;;;;;4.80;4.50;;;25.20;79.30;;;;;;5070480;28;21200;-85
2021/07/04 12:56:06;;;;;;;4.53;4.23;;;25.20;81.90;;;;;;5069672;28;20681;-85
2021/07/04 12:58:36;;;;;;;4.80;4.40;;;25.10;81.40;;;;;;5070451;28;20614;-88
2021/07/04 13:01:18;;;;;;;5.80;5.30;;;24.80;83.20;;;;;;5062517;28;20625;-87